sensor_id;sensor_type;location;lat;lon;timestamp;P1;durP1;ratioP1;P2;durP2;ratioP2
15938;SDS011;8068;51.322;9.450;2023-07-29T00:00:05;1.77;;;1.50;;
15938;SDS011;8068;51.322;9.450;2023-07-29T00:02:35;1.87;;;1.77;;
15938;SDS011;8068;51.322;9.450;2023-07-29T00:05:07;2.57;;;1.80;;
15938;SDS011;8068;51.322;9.450;2023-07-29T00:07:37;2.80;;;2.60;;
15938;SDS011;8068;51.322;9.450;2023-07-29T00:10:08;5.27;;;5.07;;
15938;SDS011;8068;51.322;9.450;2023-07-29T00:12:39;4.40;;;4.07;;
15938;SDS011;8068;51.322;9.450;2023-07-29T00:15:15;3.87;;;3.67;;
15938;SDS011;8068;51.322;9.450;2023-07-29T00:17:45;3.90;;;3.80;;
15938;SDS011;8068;51.322;9.450;2023-07-29T00:20:17;5.50;;;4.97;;
15938;SDS011;8068;51.322;9.450;2023-07-29T00:22:51;10.87;;;5.30;;
15938;SDS011;8068;51.322;9.450;2023-07-29T00:25:22;5.20;;;4.80;;
15938;SDS011;8068;51.322;9.450;2023-07-29T00:27:56;5.40;;;4.47;;
15938;SDS011;8068;51.322;9.450;2023-07-29T00:30:25;8.93;;;3.80;;
15938;SDS011;8068;51.322;9.450;2023-07-29T00:32:56;9.93;;;4.73;;
15938;SDS011;8068;51.322;9.450;2023-07-29T00:35:27;4.50;;;4.20;;
15938;SDS011;8068;51.322;9.450;2023-07-29T00:37:59;5.03;;;3.60;;
15938;SDS011;8068;51.322;9.450;2023-07-29T00:40:32;4.43;;;4.03;;
15938;SDS011;8068;51.322;9.450;2023-07-29T00:43:02;3.93;;;2.97;;
15938;SDS011;8068;51.322;9.450;2023-07-29T00:45:33;3.80;;;3.00;;
15938;SDS011;8068;51.322;9.450;2023-07-29T00:48:06;4.50;;;4.10;;
15938;SDS011;8068;51.322;9.450;2023-07-29T00:50:38;4.10;;;3.87;;
15938;SDS011;8068;51.322;9.450;2023-07-29T00:53:09;3.50;;;3.20;;
15938;SDS011;8068;51.322;9.450;2023-07-29T00:55:40;5.70;;;4.00;;
15938;SDS011;8068;51.322;9.450;2023-07-29T00:58:11;8.10;;;3.80;;
15938;SDS011;8068;51.322;9.450;2023-07-29T01:00:42;6.50;;;3.80;;
15938;SDS011;8068;51.322;9.450;2023-07-29T01:03:13;5.53;;;4.40;;
15938;SDS011;8068;51.322;9.450;2023-07-29T01:08:37;6.30;;;3.53;;
15938;SDS011;8068;51.322;9.450;2023-07-29T01:14:21;5.37;;;4.00;;
15938;SDS011;8068;51.322;9.450;2023-07-29T01:17:01;3.60;;;3.30;;
15938;SDS011;8068;51.322;9.450;2023-07-29T01:22:29;9.80;;;3.77;;
15938;SDS011;8068;51.322;9.450;2023-07-29T01:25:02;5.17;;;3.80;;
15938;SDS011;8068;51.322;9.450;2023-07-29T01:27:41;8.33;;;3.37;;
15938;SDS011;8068;51.322;9.450;2023-07-29T01:30:14;3.80;;;3.37;;
15938;SDS011;8068;51.322;9.450;2023-07-29T01:36:10;5.33;;;3.37;;
15938;SDS011;8068;51.322;9.450;2023-07-29T01:38:45;6.23;;;3.20;;
15938;SDS011;8068;51.322;9.450;2023-07-29T01:41:13;4.27;;;2.77;;
15938;SDS011;8068;51.322;9.450;2023-07-29T01:43:40;6.13;;;3.40;;
15938;SDS011;8068;51.322;9.450;2023-07-29T01:46:10;3.37;;;3.03;;
15938;SDS011;8068;51.322;9.450;2023-07-29T01:48:44;3.30;;;2.60;;
15938;SDS011;8068;51.322;9.450;2023-07-29T01:51:14;3.43;;;2.93;;
15938;SDS011;8068;51.322;9.450;2023-07-29T01:53:45;6.93;;;2.27;;
15938;SDS011;8068;51.322;9.450;2023-07-29T01:56:19;3.00;;;2.67;;
15938;SDS011;8068;51.322;9.450;2023-07-29T01:58:50;5.40;;;3.00;;
15938;SDS011;8068;51.322;9.450;2023-07-29T02:01:21;5.17;;;2.90;;
15938;SDS011;8068;51.322;9.450;2023-07-29T02:03:52;2.27;;;2.17;;
15938;SDS011;8068;51.322;9.450;2023-07-29T02:06:24;3.23;;;2.87;;
15938;SDS011;8068;51.322;9.450;2023-07-29T02:08:55;3.77;;;2.30;;
15938;SDS011;8068;51.322;9.450;2023-07-29T02:11:26;2.50;;;2.30;;
15938;SDS011;8068;51.322;9.450;2023-07-29T02:13:59;4.20;;;2.60;;
15938;SDS011;8068;51.322;9.450;2023-07-29T02:16:30;5.30;;;2.67;;
15938;SDS011;8068;51.322;9.450;2023-07-29T02:19:01;6.23;;;3.03;;
15938;SDS011;8068;51.322;9.450;2023-07-29T02:21:35;5.53;;;3.30;;
15938;SDS011;8068;51.322;9.450;2023-07-29T02:24:06;5.77;;;2.10;;
15938;SDS011;8068;51.322;9.450;2023-07-29T02:26:37;3.83;;;2.20;;
15938;SDS011;8068;51.322;9.450;2023-07-29T02:29:08;2.90;;;2.40;;
15938;SDS011;8068;51.322;9.450;2023-07-29T02:31:40;3.00;;;2.80;;
15938;SDS011;8068;51.322;9.450;2023-07-29T02:34:10;3.40;;;2.47;;
15938;SDS011;8068;51.322;9.450;2023-07-29T02:36:42;3.93;;;3.13;;
15938;SDS011;8068;51.322;9.450;2023-07-29T02:39:16;3.40;;;3.00;;
15938;SDS011;8068;51.322;9.450;2023-07-29T02:41:47;3.83;;;2.97;;
15938;SDS011;8068;51.322;9.450;2023-07-29T02:44:18;3.33;;;3.00;;
15938;SDS011;8068;51.322;9.450;2023-07-29T02:46:52;4.63;;;3.30;;
15938;SDS011;8068;51.322;9.450;2023-07-29T02:49:24;5.83;;;3.13;;
15938;SDS011;8068;51.322;9.450;2023-07-29T02:51:56;8.13;;;4.00;;
15938;SDS011;8068;51.322;9.450;2023-07-29T02:54:28;4.97;;;4.77;;
15938;SDS011;8068;51.322;9.450;2023-07-29T02:56:59;5.77;;;4.37;;
15938;SDS011;8068;51.322;9.450;2023-07-29T02:59:30;13.43;;;5.80;;
15938;SDS011;8068;51.322;9.450;2023-07-29T03:02:01;5.07;;;4.87;;
15938;SDS011;8068;51.322;9.450;2023-07-29T03:04:36;7.57;;;5.60;;
15938;SDS011;8068;51.322;9.450;2023-07-29T03:07:07;5.20;;;4.67;;
15938;SDS011;8068;51.322;9.450;2023-07-29T03:09:38;7.60;;;5.33;;
15938;SDS011;8068;51.322;9.450;2023-07-29T03:12:12;9.60;;;4.80;;
15938;SDS011;8068;51.322;9.450;2023-07-29T03:14:47;8.87;;;6.57;;
15938;SDS011;8068;51.322;9.450;2023-07-29T03:17:16;6.67;;;4.70;;
15938;SDS011;8068;51.322;9.450;2023-07-29T03:19:50;5.37;;;4.87;;
15938;SDS011;8068;51.322;9.450;2023-07-29T03:22:22;6.30;;;5.93;;
15938;SDS011;8068;51.322;9.450;2023-07-29T03:24:52;8.73;;;5.57;;
15938;SDS011;8068;51.322;9.450;2023-07-29T03:27:24;5.30;;;5.00;;
15938;SDS011;8068;51.322;9.450;2023-07-29T03:29:55;6.90;;;4.53;;
15938;SDS011;8068;51.322;9.450;2023-07-29T03:32:27;7.57;;;5.27;;
15938;SDS011;8068;51.322;9.450;2023-07-29T03:34:59;5.00;;;4.80;;
15938;SDS011;8068;51.322;9.450;2023-07-29T03:37:34;4.67;;;4.37;;
15938;SDS011;8068;51.322;9.450;2023-07-29T03:40:06;6.63;;;5.83;;
15938;SDS011;8068;51.322;9.450;2023-07-29T03:42:37;7.70;;;5.83;;
15938;SDS011;8068;51.322;9.450;2023-07-29T03:45:13;6.97;;;6.40;;
15938;SDS011;8068;51.322;9.450;2023-07-29T03:47:43;8.23;;;6.77;;
15938;SDS011;8068;51.322;9.450;2023-07-29T03:50:15;7.60;;;5.63;;
15938;SDS011;8068;51.322;9.450;2023-07-29T03:52:48;6.87;;;6.47;;
15938;SDS011;8068;51.322;9.450;2023-07-29T03:55:22;10.00;;;6.67;;
15938;SDS011;8068;51.322;9.450;2023-07-29T03:57:54;9.20;;;7.80;;
15938;SDS011;8068;51.322;9.450;2023-07-29T04:00:26;7.60;;;6.87;;
15938;SDS011;8068;51.322;9.450;2023-07-29T04:02:58;6.43;;;6.00;;
15938;SDS011;8068;51.322;9.450;2023-07-29T04:05:30;7.20;;;6.60;;
15938;SDS011;8068;51.322;9.450;2023-07-29T04:08:02;6.60;;;6.20;;
15938;SDS011;8068;51.322;9.450;2023-07-29T04:10:33;6.90;;;6.03;;
15938;SDS011;8068;51.322;9.450;2023-07-29T04:13:06;6.10;;;5.53;;
15938;SDS011;8068;51.322;9.450;2023-07-29T04:15:37;10.30;;;7.50;;
15938;SDS011;8068;51.322;9.450;2023-07-29T04:18:10;8.63;;;7.93;;
15938;SDS011;8068;51.322;9.450;2023-07-29T04:20:42;8.50;;;7.67;;
15938;SDS011;8068;51.322;9.450;2023-07-29T04:23:14;8.20;;;7.50;;
15938;SDS011;8068;51.322;9.450;2023-07-29T04:25:49;11.30;;;6.93;;
15938;SDS011;8068;51.322;9.450;2023-07-29T04:28:21;7.67;;;7.20;;
15938;SDS011;8068;51.322;9.450;2023-07-29T04:30:53;7.20;;;6.80;;
15938;SDS011;8068;51.322;9.450;2023-07-29T04:33:28;8.80;;;6.03;;
15938;SDS011;8068;51.322;9.450;2023-07-29T04:36:01;7.37;;;7.07;;
15938;SDS011;8068;51.322;9.450;2023-07-29T04:38:32;7.83;;;7.00;;
15938;SDS011;8068;51.322;9.450;2023-07-29T04:41:04;13.00;;;5.80;;
15938;SDS011;8068;51.322;9.450;2023-07-29T04:43:38;5.80;;;5.50;;
15938;SDS011;8068;51.322;9.450;2023-07-29T04:46:09;6.37;;;5.97;;
15938;SDS011;8068;51.322;9.450;2023-07-29T04:48:41;5.03;;;4.83;;
15938;SDS011;8068;51.322;9.450;2023-07-29T04:51:13;8.50;;;6.40;;
15938;SDS011;8068;51.322;9.450;2023-07-29T04:53:44;7.20;;;6.63;;
15938;SDS011;8068;51.322;9.450;2023-07-29T04:56:15;6.97;;;6.50;;
15938;SDS011;8068;51.322;9.450;2023-07-29T04:58:51;5.83;;;5.63;;
15938;SDS011;8068;51.322;9.450;2023-07-29T05:01:24;7.40;;;6.93;;
15938;SDS011;8068;51.322;9.450;2023-07-29T05:03:55;5.60;;;5.40;;
15938;SDS011;8068;51.322;9.450;2023-07-29T05:06:30;5.80;;;5.57;;
15938;SDS011;8068;51.322;9.450;2023-07-29T05:09:14;6.40;;;5.90;;
15938;SDS011;8068;51.322;9.450;2023-07-29T05:11:46;6.83;;;6.30;;
15938;SDS011;8068;51.322;9.450;2023-07-29T05:14:18;8.33;;;6.23;;
15938;SDS011;8068;51.322;9.450;2023-07-29T05:16:49;6.70;;;5.17;;
15938;SDS011;8068;51.322;9.450;2023-07-29T05:19:22;6.60;;;6.20;;
15938;SDS011;8068;51.322;9.450;2023-07-29T05:21:55;5.57;;;5.33;;
15938;SDS011;8068;51.322;9.450;2023-07-29T05:24:27;5.70;;;5.40;;
15938;SDS011;8068;51.322;9.450;2023-07-29T05:26:59;6.63;;;5.77;;
15938;SDS011;8068;51.322;9.450;2023-07-29T05:29:34;14.80;;;6.60;;
15938;SDS011;8068;51.322;9.450;2023-07-29T05:32:06;5.77;;;5.47;;
15938;SDS011;8068;51.322;9.450;2023-07-29T05:34:37;11.77;;;6.83;;
15938;SDS011;8068;51.322;9.450;2023-07-29T05:37:08;6.93;;;5.67;;
15938;SDS011;8068;51.322;9.450;2023-07-29T05:39:40;5.70;;;5.30;;
15938;SDS011;8068;51.322;9.450;2023-07-29T05:42:11;6.83;;;6.33;;
15938;SDS011;8068;51.322;9.450;2023-07-29T05:44:42;7.10;;;6.40;;
15938;SDS011;8068;51.322;9.450;2023-07-29T05:47:15;6.90;;;6.30;;
15938;SDS011;8068;51.322;9.450;2023-07-29T05:49:46;6.00;;;5.80;;
15938;SDS011;8068;51.322;9.450;2023-07-29T05:52:18;6.50;;;6.10;;
15938;SDS011;8068;51.322;9.450;2023-07-29T05:54:53;6.80;;;6.40;;
15938;SDS011;8068;51.322;9.450;2023-07-29T05:57:24;9.43;;;6.73;;
15938;SDS011;8068;51.322;9.450;2023-07-29T05:59:55;10.20;;;6.20;;
15938;SDS011;8068;51.322;9.450;2023-07-29T06:02:30;6.47;;;6.17;;
15938;SDS011;8068;51.322;9.450;2023-07-29T06:05:02;7.00;;;6.70;;
15938;SDS011;8068;51.322;9.450;2023-07-29T06:07:35;7.50;;;7.20;;
15938;SDS011;8068;51.322;9.450;2023-07-29T06:10:08;6.97;;;6.37;;
15938;SDS011;8068;51.322;9.450;2023-07-29T06:12:43;7.20;;;6.70;;
15938;SDS011;8068;51.322;9.450;2023-07-29T06:15:14;8.33;;;7.27;;
15938;SDS011;8068;51.322;9.450;2023-07-29T06:17:46;9.03;;;7.40;;
15938;SDS011;8068;51.322;9.450;2023-07-29T06:20:18;7.30;;;6.80;;
15938;SDS011;8068;51.322;9.450;2023-07-29T06:22:50;7.43;;;6.93;;
15938;SDS011;8068;51.322;9.450;2023-07-29T06:25:22;7.03;;;6.53;;
15938;SDS011;8068;51.322;9.450;2023-07-29T06:27:53;6.70;;;6.27;;
15938;SDS011;8068;51.322;9.450;2023-07-29T06:30:24;6.87;;;6.47;;
15938;SDS011;8068;51.322;9.450;2023-07-29T06:32:56;6.53;;;6.23;;
15938;SDS011;8068;51.322;9.450;2023-07-29T06:35:29;6.33;;;6.13;;
15938;SDS011;8068;51.322;9.450;2023-07-29T06:38:01;7.40;;;6.70;;
15938;SDS011;8068;51.322;9.450;2023-07-29T06:40:32;6.93;;;6.63;;
15938;SDS011;8068;51.322;9.450;2023-07-29T06:43:07;7.03;;;6.73;;
15938;SDS011;8068;51.322;9.450;2023-07-29T06:45:39;7.60;;;7.13;;
15938;SDS011;8068;51.322;9.450;2023-07-29T06:48:10;6.57;;;6.27;;
15938;SDS011;8068;51.322;9.450;2023-07-29T06:50:41;7.70;;;7.20;;
15938;SDS011;8068;51.322;9.450;2023-07-29T06:53:13;6.20;;;5.90;;
15938;SDS011;8068;51.322;9.450;2023-07-29T06:55:44;6.67;;;6.17;;
15938;SDS011;8068;51.322;9.450;2023-07-29T06:58:15;6.80;;;5.60;;
15938;SDS011;8068;51.322;9.450;2023-07-29T07:00:48;7.27;;;6.77;;
15938;SDS011;8068;51.322;9.450;2023-07-29T07:03:20;11.17;;;7.27;;
15938;SDS011;8068;51.322;9.450;2023-07-29T07:05:51;6.50;;;6.20;;
15938;SDS011;8068;51.322;9.450;2023-07-29T07:08:27;5.80;;;5.50;;
15938;SDS011;8068;51.322;9.450;2023-07-29T07:10:58;6.13;;;5.93;;
15938;SDS011;8068;51.322;9.450;2023-07-29T07:13:30;6.00;;;5.60;;
15938;SDS011;8068;51.322;9.450;2023-07-29T07:16:00;6.20;;;5.90;;
15938;SDS011;8068;51.322;9.450;2023-07-29T07:18:32;6.20;;;5.70;;
15938;SDS011;8068;51.322;9.450;2023-07-29T07:21:03;5.40;;;5.00;;
15938;SDS011;8068;51.322;9.450;2023-07-29T07:23:35;4.70;;;4.50;;
15938;SDS011;8068;51.322;9.450;2023-07-29T07:26:10;9.47;;;5.33;;
15938;SDS011;8068;51.322;9.450;2023-07-29T07:28:42;5.30;;;5.10;;
15938;SDS011;8068;51.322;9.450;2023-07-29T07:31:13;5.43;;;4.90;;
15938;SDS011;8068;51.322;9.450;2023-07-29T07:33:51;5.70;;;5.43;;
15938;SDS011;8068;51.322;9.450;2023-07-29T07:36:23;5.43;;;4.60;;
15938;SDS011;8068;51.322;9.450;2023-07-29T07:38:54;4.83;;;4.63;;
15938;SDS011;8068;51.322;9.450;2023-07-29T07:41:31;5.03;;;4.30;;
15938;SDS011;8068;51.322;9.450;2023-07-29T07:44:03;5.17;;;5.00;;
15938;SDS011;8068;51.322;9.450;2023-07-29T07:46:34;6.27;;;5.63;;
15938;SDS011;8068;51.322;9.450;2023-07-29T07:49:10;5.27;;;5.07;;
15938;SDS011;8068;51.322;9.450;2023-07-29T07:51:43;5.50;;;5.20;;
15938;SDS011;8068;51.322;9.450;2023-07-29T07:54:14;4.67;;;4.47;;
15938;SDS011;8068;51.322;9.450;2023-07-29T07:56:50;5.00;;;4.70;;
15938;SDS011;8068;51.322;9.450;2023-07-29T07:59:21;5.57;;;5.07;;
15938;SDS011;8068;51.322;9.450;2023-07-29T08:01:52;4.87;;;4.67;;
15938;SDS011;8068;51.322;9.450;2023-07-29T08:04:24;5.07;;;4.77;;
15938;SDS011;8068;51.322;9.450;2023-07-29T08:06:56;5.00;;;4.60;;
15938;SDS011;8068;51.322;9.450;2023-07-29T08:09:27;4.40;;;4.30;;
15938;SDS011;8068;51.322;9.450;2023-07-29T08:11:57;4.33;;;4.13;;
15938;SDS011;8068;51.322;9.450;2023-07-29T08:14:31;4.50;;;4.33;;
15938;SDS011;8068;51.322;9.450;2023-07-29T08:17:02;5.63;;;4.20;;
15938;SDS011;8068;51.322;9.450;2023-07-29T08:19:36;3.80;;;3.60;;
15938;SDS011;8068;51.322;9.450;2023-07-29T08:22:12;4.60;;;4.20;;
15938;SDS011;8068;51.322;9.450;2023-07-29T08:24:43;4.53;;;4.30;;
15938;SDS011;8068;51.322;9.450;2023-07-29T08:27:15;4.17;;;3.93;;
15938;SDS011;8068;51.322;9.450;2023-07-29T08:29:50;4.00;;;3.80;;
15938;SDS011;8068;51.322;9.450;2023-07-29T08:32:21;5.40;;;4.00;;
15938;SDS011;8068;51.322;9.450;2023-07-29T08:34:52;3.30;;;3.20;;
15938;SDS011;8068;51.322;9.450;2023-07-29T08:37:24;4.00;;;3.80;;
15938;SDS011;8068;51.322;9.450;2023-07-29T08:39:55;3.23;;;3.13;;
15938;SDS011;8068;51.322;9.450;2023-07-29T08:42:28;3.10;;;3.00;;
15938;SDS011;8068;51.322;9.450;2023-07-29T08:45:01;3.80;;;3.50;;
15938;SDS011;8068;51.322;9.450;2023-07-29T08:47:39;3.13;;;2.77;;
15938;SDS011;8068;51.322;9.450;2023-07-29T08:50:10;3.00;;;2.90;;
15938;SDS011;8068;51.322;9.450;2023-07-29T08:52:45;3.03;;;2.60;;
15938;SDS011;8068;51.322;9.450;2023-07-29T08:55:18;2.50;;;2.40;;
15938;SDS011;8068;51.322;9.450;2023-07-29T08:57:50;2.47;;;2.20;;
15938;SDS011;8068;51.322;9.450;2023-07-29T09:00:22;2.83;;;2.70;;
15938;SDS011;8068;51.322;9.450;2023-07-29T09:02:55;2.30;;;2.20;;
15938;SDS011;8068;51.322;9.450;2023-07-29T09:05:28;2.30;;;2.20;;
15938;SDS011;8068;51.322;9.450;2023-07-29T09:08:00;2.00;;;1.90;;
15938;SDS011;8068;51.322;9.450;2023-07-29T09:10:36;3.80;;;2.20;;
15938;SDS011;8068;51.322;9.450;2023-07-29T09:13:08;1.93;;;1.83;;
15938;SDS011;8068;51.322;9.450;2023-07-29T09:15:39;2.60;;;1.83;;
15938;SDS011;8068;51.322;9.450;2023-07-29T09:18:18;1.90;;;1.80;;
15938;SDS011;8068;51.322;9.450;2023-07-29T09:20:50;2.10;;;1.90;;
15938;SDS011;8068;51.322;9.450;2023-07-29T09:23:21;2.27;;;2.17;;
15938;SDS011;8068;51.322;9.450;2023-07-29T09:26:01;3.03;;;2.83;;
15938;SDS011;8068;51.322;9.450;2023-07-29T09:28:36;2.40;;;2.20;;
15938;SDS011;8068;51.322;9.450;2023-07-29T09:31:18;4.43;;;3.20;;
15938;SDS011;8068;51.322;9.450;2023-07-29T09:34:00;3.90;;;2.33;;
15938;SDS011;8068;51.322;9.450;2023-07-29T09:36:34;2.87;;;2.67;;
15938;SDS011;8068;51.322;9.450;2023-07-29T09:39:11;2.30;;;2.20;;
15938;SDS011;8068;51.322;9.450;2023-07-29T09:41:50;2.33;;;2.10;;
15938;SDS011;8068;51.322;9.450;2023-07-29T09:44:22;2.83;;;2.23;;
15938;SDS011;8068;51.322;9.450;2023-07-29T09:46:53;4.23;;;2.67;;
15938;SDS011;8068;51.322;9.450;2023-07-29T09:49:25;2.37;;;2.27;;
15938;SDS011;8068;51.322;9.450;2023-07-29T09:51:57;2.70;;;2.50;;
15938;SDS011;8068;51.322;9.450;2023-07-29T09:54:31;2.80;;;2.70;;
15938;SDS011;8068;51.322;9.450;2023-07-29T09:57:03;2.40;;;2.30;;
15938;SDS011;8068;51.322;9.450;2023-07-29T09:59:35;2.70;;;2.60;;
15938;SDS011;8068;51.322;9.450;2023-07-29T10:02:15;2.80;;;2.30;;
15938;SDS011;8068;51.322;9.450;2023-07-29T10:04:48;2.47;;;2.37;;
15938;SDS011;8068;51.322;9.450;2023-07-29T10:07:21;4.70;;;2.30;;
15938;SDS011;8068;51.322;9.450;2023-07-29T10:09:55;2.60;;;2.33;;
15938;SDS011;8068;51.322;9.450;2023-07-29T10:12:27;2.13;;;2.03;;
15938;SDS011;8068;51.322;9.450;2023-07-29T10:15:00;4.07;;;2.50;;
15938;SDS011;8068;51.322;9.450;2023-07-29T10:17:35;2.47;;;2.37;;
15938;SDS011;8068;51.322;9.450;2023-07-29T10:20:09;2.60;;;2.03;;
15938;SDS011;8068;51.322;9.450;2023-07-29T10:22:42;3.07;;;2.17;;
15938;SDS011;8068;51.322;9.450;2023-07-29T10:25:17;2.53;;;2.43;;
15938;SDS011;8068;51.322;9.450;2023-07-29T10:27:56;2.73;;;2.63;;
15938;SDS011;8068;51.322;9.450;2023-07-29T10:30:38;2.97;;;2.87;;
15938;SDS011;8068;51.322;9.450;2023-07-29T10:33:10;3.07;;;2.87;;
15938;SDS011;8068;51.322;9.450;2023-07-29T10:35:41;2.80;;;2.70;;
15938;SDS011;8068;51.322;9.450;2023-07-29T10:38:13;3.13;;;3.03;;
15938;SDS011;8068;51.322;9.450;2023-07-29T10:40:46;3.10;;;3.00;;
15938;SDS011;8068;51.322;9.450;2023-07-29T10:43:19;4.30;;;4.10;;
15938;SDS011;8068;51.322;9.450;2023-07-29T10:45:56;2.60;;;2.50;;
15938;SDS011;8068;51.322;9.450;2023-07-29T10:51:21;3.00;;;2.90;;
15938;SDS011;8068;51.322;9.450;2023-07-29T10:54:13;3.67;;;2.87;;
15938;SDS011;8068;51.322;9.450;2023-07-29T10:56:47;3.23;;;3.00;;
15938;SDS011;8068;51.322;9.450;2023-07-29T10:59:22;2.90;;;2.80;;
15938;SDS011;8068;51.322;9.450;2023-07-29T11:02:06;5.70;;;2.90;;
15938;SDS011;8068;51.322;9.450;2023-07-29T11:04:50;4.20;;;3.20;;
15938;SDS011;8068;51.322;9.450;2023-07-29T11:07:22;3.13;;;3.03;;
15938;SDS011;8068;51.322;9.450;2023-07-29T11:09:57;3.10;;;3.00;;
15938;SDS011;8068;51.322;9.450;2023-07-29T11:17:58;3.33;;;3.23;;
15938;SDS011;8068;51.322;9.450;2023-07-29T11:20:32;3.17;;;2.97;;
15938;SDS011;8068;51.322;9.450;2023-07-29T11:23:04;3.17;;;2.97;;
15938;SDS011;8068;51.322;9.450;2023-07-29T11:25:43;2.90;;;2.80;;
15938;SDS011;8068;51.322;9.450;2023-07-29T11:28:16;3.67;;;3.23;;
15938;SDS011;8068;51.322;9.450;2023-07-29T11:30:47;3.13;;;3.03;;
15938;SDS011;8068;51.322;9.450;2023-07-29T11:33:24;4.30;;;4.00;;
15938;SDS011;8068;51.322;9.450;2023-07-29T11:35:57;3.73;;;3.53;;
15938;SDS011;8068;51.322;9.450;2023-07-29T11:38:30;3.13;;;3.03;;
15938;SDS011;8068;51.322;9.450;2023-07-29T11:41:08;3.30;;;3.20;;
15938;SDS011;8068;51.322;9.450;2023-07-29T11:43:39;3.40;;;3.20;;
15938;SDS011;8068;51.322;9.450;2023-07-29T11:46:12;3.23;;;3.13;;
15938;SDS011;8068;51.322;9.450;2023-07-29T11:48:49;3.23;;;3.13;;
15938;SDS011;8068;51.322;9.450;2023-07-29T11:51:22;2.90;;;2.80;;
15938;SDS011;8068;51.322;9.450;2023-07-29T11:53:54;3.50;;;3.20;;
15938;SDS011;8068;51.322;9.450;2023-07-29T11:56:29;2.87;;;2.70;;
15938;SDS011;8068;51.322;9.450;2023-07-29T11:59:01;6.07;;;5.73;;
15938;SDS011;8068;51.322;9.450;2023-07-29T12:01:34;2.47;;;2.27;;
15938;SDS011;8068;51.322;9.450;2023-07-29T12:04:10;2.27;;;2.17;;
15938;SDS011;8068;51.322;9.450;2023-07-29T12:06:42;2.37;;;2.17;;
15938;SDS011;8068;51.322;9.450;2023-07-29T12:09:13;2.20;;;2.10;;
15938;SDS011;8068;51.322;9.450;2023-07-29T12:11:52;2.37;;;2.27;;
15938;SDS011;8068;51.322;9.450;2023-07-29T12:14:30;2.10;;;1.90;;
15938;SDS011;8068;51.322;9.450;2023-07-29T12:17:03;2.30;;;2.20;;
15938;SDS011;8068;51.322;9.450;2023-07-29T12:19:37;2.00;;;1.90;;
15938;SDS011;8068;51.322;9.450;2023-07-29T12:22:10;2.10;;;2.00;;
15938;SDS011;8068;51.322;9.450;2023-07-29T12:24:42;3.13;;;2.20;;
15938;SDS011;8068;51.322;9.450;2023-07-29T12:27:18;2.30;;;2.20;;
15938;SDS011;8068;51.322;9.450;2023-07-29T12:29:53;3.40;;;3.20;;
15938;SDS011;8068;51.322;9.450;2023-07-29T12:32:25;7.30;;;6.60;;
15938;SDS011;8068;51.322;9.450;2023-07-29T12:35:01;3.10;;;1.73;;
15938;SDS011;8068;51.322;9.450;2023-07-29T12:37:33;2.77;;;1.80;;
15938;SDS011;8068;51.322;9.450;2023-07-29T12:40:04;1.97;;;1.87;;
15938;SDS011;8068;51.322;9.450;2023-07-29T12:42:41;1.73;;;1.63;;
15938;SDS011;8068;51.322;9.450;2023-07-29T12:45:13;1.60;;;1.50;;
15938;SDS011;8068;51.322;9.450;2023-07-29T12:47:56;1.73;;;1.63;;
15938;SDS011;8068;51.322;9.450;2023-07-29T12:50:28;1.67;;;1.57;;
15938;SDS011;8068;51.322;9.450;2023-07-29T12:53:00;1.60;;;1.50;;
15938;SDS011;8068;51.322;9.450;2023-07-29T12:55:32;1.57;;;1.47;;
15938;SDS011;8068;51.322;9.450;2023-07-29T12:58:06;1.90;;;1.80;;
15938;SDS011;8068;51.322;9.450;2023-07-29T13:00:37;2.07;;;1.97;;
15938;SDS011;8068;51.322;9.450;2023-07-29T13:03:09;2.87;;;1.70;;
15938;SDS011;8068;51.322;9.450;2023-07-29T13:05:46;2.10;;;1.70;;
15938;SDS011;8068;51.322;9.450;2023-07-29T13:08:18;1.70;;;1.60;;
15938;SDS011;8068;51.322;9.450;2023-07-29T13:10:51;3.30;;;1.50;;
15938;SDS011;8068;51.322;9.450;2023-07-29T13:13:28;2.43;;;1.30;;
15938;SDS011;8068;51.322;9.450;2023-07-29T13:16:00;2.03;;;1.53;;
15938;SDS011;8068;51.322;9.450;2023-07-29T13:18:33;1.70;;;1.23;;
15938;SDS011;8068;51.322;9.450;2023-07-29T13:21:09;1.50;;;1.30;;
15938;SDS011;8068;51.322;9.450;2023-07-29T13:23:41;1.30;;;1.10;;
15938;SDS011;8068;51.322;9.450;2023-07-29T13:26:15;4.23;;;1.40;;
15938;SDS011;8068;51.322;9.450;2023-07-29T13:28:47;5.60;;;1.63;;
15938;SDS011;8068;51.322;9.450;2023-07-29T13:31:18;2.33;;;1.43;;
15938;SDS011;8068;51.322;9.450;2023-07-29T13:33:50;1.57;;;1.47;;
15938;SDS011;8068;51.322;9.450;2023-07-29T13:36:21;1.87;;;1.20;;
15938;SDS011;8068;51.322;9.450;2023-07-29T13:38:53;1.43;;;1.33;;
15938;SDS011;8068;51.322;9.450;2023-07-29T13:41:25;1.63;;;1.53;;
15938;SDS011;8068;51.322;9.450;2023-07-29T13:43:58;2.90;;;1.60;;
15938;SDS011;8068;51.322;9.450;2023-07-29T13:46:32;1.27;;;1.13;;
15938;SDS011;8068;51.322;9.450;2023-07-29T13:49:04;1.30;;;1.10;;
15938;SDS011;8068;51.322;9.450;2023-07-29T13:51:35;1.10;;;1.00;;
15938;SDS011;8068;51.322;9.450;2023-07-29T13:54:12;2.50;;;1.33;;
15938;SDS011;8068;51.322;9.450;2023-07-29T13:56:43;1.37;;;1.27;;
15938;SDS011;8068;51.322;9.450;2023-07-29T13:59:15;1.53;;;1.43;;
15938;SDS011;8068;51.322;9.450;2023-07-29T14:01:52;1.93;;;1.10;;
15938;SDS011;8068;51.322;9.450;2023-07-29T14:04:23;1.80;;;1.70;;
15938;SDS011;8068;51.322;9.450;2023-07-29T14:06:54;1.60;;;1.50;;
15938;SDS011;8068;51.322;9.450;2023-07-29T14:09:36;2.23;;;1.40;;
15938;SDS011;8068;51.322;9.450;2023-07-29T14:12:08;1.90;;;1.80;;
15938;SDS011;8068;51.322;9.450;2023-07-29T14:14:43;2.27;;;1.33;;
15938;SDS011;8068;51.322;9.450;2023-07-29T14:17:20;1.40;;;1.30;;
15938;SDS011;8068;51.322;9.450;2023-07-29T14:19:52;1.30;;;1.20;;
15938;SDS011;8068;51.322;9.450;2023-07-29T14:22:26;1.53;;;1.30;;
15938;SDS011;8068;51.322;9.450;2023-07-29T14:25:02;2.73;;;2.03;;
15938;SDS011;8068;51.322;9.450;2023-07-29T14:27:33;1.30;;;1.20;;
15938;SDS011;8068;51.322;9.450;2023-07-29T14:30:05;1.33;;;1.23;;
15938;SDS011;8068;51.322;9.450;2023-07-29T14:32:42;1.30;;;1.20;;
15938;SDS011;8068;51.322;9.450;2023-07-29T14:35:13;1.30;;;1.00;;
15938;SDS011;8068;51.322;9.450;2023-07-29T14:37:44;2.50;;;1.20;;
15938;SDS011;8068;51.322;9.450;2023-07-29T14:40:20;1.70;;;1.30;;
15938;SDS011;8068;51.322;9.450;2023-07-29T14:42:52;2.47;;;1.13;;
15938;SDS011;8068;51.322;9.450;2023-07-29T14:45:23;1.67;;;1.30;;
15938;SDS011;8068;51.322;9.450;2023-07-29T14:47:54;1.70;;;1.40;;
15938;SDS011;8068;51.322;9.450;2023-07-29T14:50:25;1.93;;;1.20;;
15938;SDS011;8068;51.322;9.450;2023-07-29T14:52:57;1.20;;;1.03;;
15938;SDS011;8068;51.322;9.450;2023-07-29T14:55:28;1.50;;;1.40;;
15938;SDS011;8068;51.322;9.450;2023-07-29T14:58:01;1.50;;;1.40;;
15938;SDS011;8068;51.322;9.450;2023-07-29T15:00:32;1.30;;;1.20;;
15938;SDS011;8068;51.322;9.450;2023-07-29T15:03:04;1.20;;;1.00;;
15938;SDS011;8068;51.322;9.450;2023-07-29T15:05:39;1.40;;;1.10;;
15938;SDS011;8068;51.322;9.450;2023-07-29T15:08:11;1.50;;;1.30;;
15938;SDS011;8068;51.322;9.450;2023-07-29T15:10:46;1.37;;;1.27;;
15938;SDS011;8068;51.322;9.450;2023-07-29T15:13:22;1.57;;;1.00;;
15938;SDS011;8068;51.322;9.450;2023-07-29T15:15:53;1.40;;;1.30;;
15938;SDS011;8068;51.322;9.450;2023-07-29T15:18:24;1.40;;;1.10;;
15938;SDS011;8068;51.322;9.450;2023-07-29T15:20:56;2.33;;;0.93;;
15938;SDS011;8068;51.322;9.450;2023-07-29T15:23:28;8.10;;;1.30;;
15938;SDS011;8068;51.322;9.450;2023-07-29T15:25:59;1.47;;;1.30;;
15938;SDS011;8068;51.322;9.450;2023-07-29T15:28:31;1.20;;;1.10;;
15938;SDS011;8068;51.322;9.450;2023-07-29T15:31:03;1.93;;;0.97;;
15938;SDS011;8068;51.322;9.450;2023-07-29T15:33:34;5.53;;;1.57;;
15938;SDS011;8068;51.322;9.450;2023-07-29T15:36:05;5.83;;;1.40;;
15938;SDS011;8068;51.322;9.450;2023-07-29T15:38:41;1.40;;;1.30;;
15938;SDS011;8068;51.322;9.450;2023-07-29T15:41:12;1.20;;;1.10;;
15938;SDS011;8068;51.322;9.450;2023-07-29T15:43:44;1.63;;;1.33;;
15938;SDS011;8068;51.322;9.450;2023-07-29T15:46:17;5.67;;;3.07;;
15938;SDS011;8068;51.322;9.450;2023-07-29T15:48:49;1.80;;;1.70;;
15938;SDS011;8068;51.322;9.450;2023-07-29T15:51:20;3.50;;;2.93;;
15938;SDS011;8068;51.322;9.450;2023-07-29T15:53:51;7.77;;;6.97;;